sensor_id;sensor_type;location;lat;lon;timestamp;P1;durP1;ratioP1;P2;durP2;ratioP2
10469;SDS011;5282;47.052;15.458;2024-02-15T00:00:49;3.90;;;3.60;;
10469;SDS011;5282;47.052;15.458;2024-02-15T00:03:18;4.37;;;3.27;;
10469;SDS011;5282;47.052;15.458;2024-02-15T00:05:47;3.53;;;3.20;;
10469;SDS011;5282;47.052;15.458;2024-02-15T00:08:14;3.53;;;3.33;;
10469;SDS011;5282;47.052;15.458;2024-02-15T00:10:43;3.93;;;3.70;;
10469;SDS011;5282;47.052;15.458;2024-02-15T00:13:12;4.80;;;3.27;;
10469;SDS011;5282;47.052;15.458;2024-02-15T00:15:39;3.57;;;3.37;;
10469;SDS011;5282;47.052;15.458;2024-02-15T00:18:06;2.90;;;2.47;;
10469;SDS011;5282;47.052;15.458;2024-02-15T00:20:33;3.17;;;2.80;;
10469;SDS011;5282;47.052;15.458;2024-02-15T00:23:00;3.00;;;2.80;;
10469;SDS011;5282;47.052;15.458;2024-02-15T00:25:29;3.00;;;2.90;;
10469;SDS011;5282;47.052;15.458;2024-02-15T00:27:58;2.80;;;2.60;;
10469;SDS011;5282;47.052;15.458;2024-02-15T00:30:27;3.17;;;2.97;;
10469;SDS011;5282;47.052;15.458;2024-02-15T00:32:54;2.87;;;2.70;;
10469;SDS011;5282;47.052;15.458;2024-02-15T00:35:21;3.37;;;3.07;;
10469;SDS011;5282;47.052;15.458;2024-02-15T00:37:48;2.70;;;2.60;;
10469;SDS011;5282;47.052;15.458;2024-02-15T00:40:16;3.03;;;2.77;;
10469;SDS011;5282;47.052;15.458;2024-02-15T00:42:43;3.50;;;3.20;;
10469;SDS011;5282;47.052;15.458;2024-02-15T00:45:13;2.70;;;2.50;;
10469;SDS011;5282;47.052;15.458;2024-02-15T00:47:42;2.20;;;2.10;;
10469;SDS011;5282;47.052;15.458;2024-02-15T00:50:09;3.03;;;2.83;;
10469;SDS011;5282;47.052;15.458;2024-02-15T00:52:36;2.53;;;2.43;;
10469;SDS011;5282;47.052;15.458;2024-02-15T00:55:04;2.67;;;2.57;;
10469;SDS011;5282;47.052;15.458;2024-02-15T00:57:31;2.80;;;2.70;;
10469;SDS011;5282;47.052;15.458;2024-02-15T00:59:58;2.57;;;2.47;;
10469;SDS011;5282;47.052;15.458;2024-02-15T01:02:26;3.20;;;2.90;;
10469;SDS011;5282;47.052;15.458;2024-02-15T01:04:54;2.90;;;2.70;;
10469;SDS011;5282;47.052;15.458;2024-02-15T01:07:24;2.57;;;2.47;;
10469;SDS011;5282;47.052;15.458;2024-02-15T01:09:53;2.87;;;2.67;;
10469;SDS011;5282;47.052;15.458;2024-02-15T01:12:20;2.93;;;2.73;;
10469;SDS011;5282;47.052;15.458;2024-02-15T01:14:47;2.57;;;2.40;;
10469;SDS011;5282;47.052;15.458;2024-02-15T01:17:14;2.80;;;2.70;;
10469;SDS011;5282;47.052;15.458;2024-02-15T01:19:42;2.67;;;2.57;;
10469;SDS011;5282;47.052;15.458;2024-02-15T01:22:10;2.77;;;2.50;;
10469;SDS011;5282;47.052;15.458;2024-02-15T01:24:38;2.50;;;2.30;;
10469;SDS011;5282;47.052;15.458;2024-02-15T01:27:05;2.63;;;2.43;;
10469;SDS011;5282;47.052;15.458;2024-02-15T01:29:32;2.63;;;2.53;;
10469;SDS011;5282;47.052;15.458;2024-02-15T01:32:00;2.90;;;2.77;;
10469;SDS011;5282;47.052;15.458;2024-02-15T01:34:27;2.73;;;2.57;;
10469;SDS011;5282;47.052;15.458;2024-02-15T01:36:56;3.47;;;3.17;;
10469;SDS011;5282;47.052;15.458;2024-02-15T01:39:23;2.80;;;2.60;;
10469;SDS011;5282;47.052;15.458;2024-02-15T01:41:50;3.07;;;2.87;;
10469;SDS011;5282;47.052;15.458;2024-02-15T01:44:21;3.90;;;2.47;;
10469;SDS011;5282;47.052;15.458;2024-02-15T01:46:50;3.27;;;2.63;;
10469;SDS011;5282;47.052;15.458;2024-02-15T01:49:19;2.87;;;2.67;;
10469;SDS011;5282;47.052;15.458;2024-02-15T01:51:47;4.10;;;2.77;;
10469;SDS011;5282;47.052;15.458;2024-02-15T01:54:21;3.53;;;2.57;;
10469;SDS011;5282;47.052;15.458;2024-02-15T01:56:49;4.20;;;3.10;;
10469;SDS011;5282;47.052;15.458;2024-02-15T01:59:16;3.50;;;3.10;;
10469;SDS011;5282;47.052;15.458;2024-02-15T02:01:44;3.07;;;2.80;;
10469;SDS011;5282;47.052;15.458;2024-02-15T02:04:11;3.13;;;2.93;;
10469;SDS011;5282;47.052;15.458;2024-02-15T02:06:41;3.43;;;3.20;;
10469;SDS011;5282;47.052;15.458;2024-02-15T02:09:09;3.73;;;3.40;;
10469;SDS011;5282;47.052;15.458;2024-02-15T02:11:39;4.97;;;3.53;;
10469;SDS011;5282;47.052;15.458;2024-02-15T02:14:07;4.37;;;3.97;;
10469;SDS011;5282;47.052;15.458;2024-02-15T02:16:34;4.57;;;4.17;;
10469;SDS011;5282;47.052;15.458;2024-02-15T02:19:01;4.70;;;4.30;;
10469;SDS011;5282;47.052;15.458;2024-02-15T02:21:33;4.47;;;4.07;;
10469;SDS011;5282;47.052;15.458;2024-02-15T02:24:02;4.93;;;4.43;;
10469;SDS011;5282;47.052;15.458;2024-02-15T02:26:34;4.63;;;3.77;;
10469;SDS011;5282;47.052;15.458;2024-02-15T02:29:01;3.83;;;3.30;;
10469;SDS011;5282;47.052;15.458;2024-02-15T02:31:32;5.07;;;4.30;;
10469;SDS011;5282;47.052;15.458;2024-02-15T02:33:59;5.47;;;4.30;;
10469;SDS011;5282;47.052;15.458;2024-02-15T02:36:27;4.13;;;3.77;;
10469;SDS011;5282;47.052;15.458;2024-02-15T02:38:55;4.20;;;3.80;;
10469;SDS011;5282;47.052;15.458;2024-02-15T02:41:25;3.97;;;3.53;;
10469;SDS011;5282;47.052;15.458;2024-02-15T02:43:56;4.00;;;3.63;;
10469;SDS011;5282;47.052;15.458;2024-02-15T02:46:23;3.80;;;3.57;;
10469;SDS011;5282;47.052;15.458;2024-02-15T02:48:50;3.83;;;3.43;;
10469;SDS011;5282;47.052;15.458;2024-02-15T02:51:17;4.40;;;4.10;;
10469;SDS011;5282;47.052;15.458;2024-02-15T02:53:43;4.53;;;4.23;;
10469;SDS011;5282;47.052;15.458;2024-02-15T02:56:10;3.90;;;3.50;;
10469;SDS011;5282;47.052;15.458;2024-02-15T02:58:38;4.67;;;3.70;;
10469;SDS011;5282;47.052;15.458;2024-02-15T03:01:09;4.13;;;3.83;;
10469;SDS011;5282;47.052;15.458;2024-02-15T03:03:36;4.80;;;4.40;;
10469;SDS011;5282;47.052;15.458;2024-02-15T03:06:03;4.40;;;4.00;;
10469;SDS011;5282;47.052;15.458;2024-02-15T03:08:31;4.30;;;3.93;;
10469;SDS011;5282;47.052;15.458;2024-02-15T03:11:00;3.80;;;3.50;;
10469;SDS011;5282;47.052;15.458;2024-02-15T03:13:29;4.17;;;3.83;;
10469;SDS011;5282;47.052;15.458;2024-02-15T03:15:56;3.97;;;3.70;;
10469;SDS011;5282;47.052;15.458;2024-02-15T03:18:25;4.07;;;3.63;;
10469;SDS011;5282;47.052;15.458;2024-02-15T03:20:53;3.80;;;3.50;;
10469;SDS011;5282;47.052;15.458;2024-02-15T03:23:22;3.60;;;3.40;;
10469;SDS011;5282;47.052;15.458;2024-02-15T03:25:50;5.90;;;4.27;;
10469;SDS011;5282;47.052;15.458;2024-02-15T03:28:17;3.90;;;3.60;;
10469;SDS011;5282;47.052;15.458;2024-02-15T03:30:44;4.00;;;3.73;;
10469;SDS011;5282;47.052;15.458;2024-02-15T03:33:11;4.30;;;4.00;;
10469;SDS011;5282;47.052;15.458;2024-02-15T03:35:40;3.90;;;3.70;;
10469;SDS011;5282;47.052;15.458;2024-02-15T03:38:06;3.80;;;3.50;;
10469;SDS011;5282;47.052;15.458;2024-02-15T03:40:34;4.93;;;4.40;;
10469;SDS011;5282;47.052;15.458;2024-02-15T03:43:02;5.67;;;3.93;;
10469;SDS011;5282;47.052;15.458;2024-02-15T03:45:32;5.27;;;4.20;;
10469;SDS011;5282;47.052;15.458;2024-02-15T03:47:59;4.73;;;4.30;;
10469;SDS011;5282;47.052;15.458;2024-02-15T03:50:26;4.87;;;4.40;;
10469;SDS011;5282;47.052;15.458;2024-02-15T03:52:56;4.70;;;3.90;;
10469;SDS011;5282;47.052;15.458;2024-02-15T03:55:25;5.17;;;4.17;;
10469;SDS011;5282;47.052;15.458;2024-02-15T03:57:52;4.23;;;3.90;;
10469;SDS011;5282;47.052;15.458;2024-02-15T04:00:21;4.37;;;3.80;;
10469;SDS011;5282;47.052;15.458;2024-02-15T04:02:50;5.07;;;4.57;;
10469;SDS011;5282;47.052;15.458;2024-02-15T04:05:17;4.93;;;4.53;;
10469;SDS011;5282;47.052;15.458;2024-02-15T04:07:45;4.53;;;3.87;;
10469;SDS011;5282;47.052;15.458;2024-02-15T04:10:13;4.87;;;4.57;;
10469;SDS011;5282;47.052;15.458;2024-02-15T04:12:44;4.33;;;3.93;;
10469;SDS011;5282;47.052;15.458;2024-02-15T04:15:11;6.80;;;4.47;;
10469;SDS011;5282;47.052;15.458;2024-02-15T04:17:42;4.63;;;4.27;;
10469;SDS011;5282;47.052;15.458;2024-02-15T04:20:10;7.33;;;4.90;;
10469;SDS011;5282;47.052;15.458;2024-02-15T04:22:39;5.63;;;4.90;;
10469;SDS011;5282;47.052;15.458;2024-02-15T04:25:08;4.93;;;4.50;;
10469;SDS011;5282;47.052;15.458;2024-02-15T04:27:37;5.57;;;5.03;;
10469;SDS011;5282;47.052;15.458;2024-02-15T04:30:05;8.50;;;4.50;;
10469;SDS011;5282;47.052;15.458;2024-02-15T04:32:35;4.67;;;4.37;;
10469;SDS011;5282;47.052;15.458;2024-02-15T04:35:02;5.57;;;4.43;;
10469;SDS011;5282;47.052;15.458;2024-02-15T04:37:30;5.47;;;4.10;;
10469;SDS011;5282;47.052;15.458;2024-02-15T04:39:58;9.00;;;7.00;;
10469;SDS011;5282;47.052;15.458;2024-02-15T04:42:33;5.33;;;4.03;;
10469;SDS011;5282;47.052;15.458;2024-02-15T04:45:04;5.00;;;4.50;;
10469;SDS011;5282;47.052;15.458;2024-02-15T04:47:35;4.87;;;4.30;;
10469;SDS011;5282;47.052;15.458;2024-02-15T04:50:02;6.27;;;4.70;;
10469;SDS011;5282;47.052;15.458;2024-02-15T04:52:31;4.83;;;4.53;;
10469;SDS011;5282;47.052;15.458;2024-02-15T04:54:58;4.33;;;3.90;;
10469;SDS011;5282;47.052;15.458;2024-02-15T04:57:25;4.83;;;4.43;;
10469;SDS011;5282;47.052;15.458;2024-02-15T04:59:53;5.23;;;4.73;;
10469;SDS011;5282;47.052;15.458;2024-02-15T05:02:21;5.47;;;4.50;;
10469;SDS011;5282;47.052;15.458;2024-02-15T05:04:51;7.23;;;4.57;;
10469;SDS011;5282;47.052;15.458;2024-02-15T05:07:22;5.30;;;4.63;;
10469;SDS011;5282;47.052;15.458;2024-02-15T05:09:49;6.67;;;5.03;;
10469;SDS011;5282;47.052;15.458;2024-02-15T05:12:21;5.87;;;4.60;;
10469;SDS011;5282;47.052;15.458;2024-02-15T05:14:49;5.10;;;4.70;;
10469;SDS011;5282;47.052;15.458;2024-02-15T05:17:17;5.63;;;4.87;;
10469;SDS011;5282;47.052;15.458;2024-02-15T05:19:45;4.60;;;4.20;;
10469;SDS011;5282;47.052;15.458;2024-02-15T05:22:13;7.30;;;4.93;;
10469;SDS011;5282;47.052;15.458;2024-02-15T05:24:40;6.47;;;4.27;;
10469;SDS011;5282;47.052;15.458;2024-02-15T05:27:07;8.30;;;4.70;;
10469;SDS011;5282;47.052;15.458;2024-02-15T05:29:34;5.87;;;4.20;;
10469;SDS011;5282;47.052;15.458;2024-02-15T05:32:01;4.60;;;4.30;;
10469;SDS011;5282;47.052;15.458;2024-02-15T05:34:29;4.03;;;3.73;;
10469;SDS011;5282;47.052;15.458;2024-02-15T05:36:57;4.63;;;4.23;;
10469;SDS011;5282;47.052;15.458;2024-02-15T05:39:24;4.50;;;4.10;;
10469;SDS011;5282;47.052;15.458;2024-02-15T05:41:51;4.60;;;4.20;;
10469;SDS011;5282;47.052;15.458;2024-02-15T05:44:19;6.00;;;4.07;;
10469;SDS011;5282;47.052;15.458;2024-02-15T05:46:46;4.77;;;4.23;;
10469;SDS011;5282;47.052;15.458;2024-02-15T05:49:13;4.83;;;4.47;;
10469;SDS011;5282;47.052;15.458;2024-02-15T05:51:42;4.53;;;3.93;;
10469;SDS011;5282;47.052;15.458;2024-02-15T05:54:11;6.07;;;5.47;;
10469;SDS011;5282;47.052;15.458;2024-02-15T05:56:38;6.00;;;4.80;;
10469;SDS011;5282;47.052;15.458;2024-02-15T05:59:05;5.53;;;4.87;;
10469;SDS011;5282;47.052;15.458;2024-02-15T06:01:35;5.03;;;4.57;;
10469;SDS011;5282;47.052;15.458;2024-02-15T06:04:04;5.60;;;5.10;;
10469;SDS011;5282;47.052;15.458;2024-02-15T06:06:33;5.73;;;5.23;;
10469;SDS011;5282;47.052;15.458;2024-02-15T06:09:00;4.93;;;4.43;;
10469;SDS011;5282;47.052;15.458;2024-02-15T06:11:29;4.90;;;4.50;;
10469;SDS011;5282;47.052;15.458;2024-02-15T06:13:56;5.03;;;4.67;;
10469;SDS011;5282;47.052;15.458;2024-02-15T06:16:23;6.60;;;4.50;;
10469;SDS011;5282;47.052;15.458;2024-02-15T06:18:50;6.57;;;4.30;;
10469;SDS011;5282;47.052;15.458;2024-02-15T06:21:17;4.57;;;4.17;;
10469;SDS011;5282;47.052;15.458;2024-02-15T06:23:45;5.07;;;4.60;;
10469;SDS011;5282;47.052;15.458;2024-02-15T06:26:14;5.57;;;4.90;;
10469;SDS011;5282;47.052;15.458;2024-02-15T06:28:43;6.53;;;4.70;;
10469;SDS011;5282;47.052;15.458;2024-02-15T06:31:28;9.20;;;4.97;;
10469;SDS011;5282;47.052;15.458;2024-02-15T06:34:12;7.90;;;4.80;;
10469;SDS011;5282;47.052;15.458;2024-02-15T06:36:56;11.37;;;5.07;;
10469;SDS011;5282;47.052;15.458;2024-02-15T06:39:41;9.13;;;4.63;;
10469;SDS011;5282;47.052;15.458;2024-02-15T06:42:08;5.40;;;4.90;;
10469;SDS011;5282;47.052;15.458;2024-02-15T06:44:38;5.53;;;5.03;;
10469;SDS011;5282;47.052;15.458;2024-02-15T06:47:07;5.40;;;4.90;;
10469;SDS011;5282;47.052;15.458;2024-02-15T06:49:36;5.17;;;4.73;;
10469;SDS011;5282;47.052;15.458;2024-02-15T06:52:05;6.23;;;5.27;;
10469;SDS011;5282;47.052;15.458;2024-02-15T06:54:32;6.30;;;5.00;;
10469;SDS011;5282;47.052;15.458;2024-02-15T06:57:01;5.90;;;5.30;;
10469;SDS011;5282;47.052;15.458;2024-02-15T06:59:29;6.87;;;5.47;;
10469;SDS011;5282;47.052;15.458;2024-02-15T07:01:58;5.83;;;5.00;;
10469;SDS011;5282;47.052;15.458;2024-02-15T07:04:25;6.23;;;4.93;;
10469;SDS011;5282;47.052;15.458;2024-02-15T07:06:52;6.63;;;5.53;;
10469;SDS011;5282;47.052;15.458;2024-02-15T07:09:20;11.57;;;5.00;;
10469;SDS011;5282;47.052;15.458;2024-02-15T07:11:48;8.73;;;5.30;;
10469;SDS011;5282;47.052;15.458;2024-02-15T07:14:15;11.80;;;6.53;;
10469;SDS011;5282;47.052;15.458;2024-02-15T07:16:44;7.03;;;6.37;;
10469;SDS011;5282;47.052;15.458;2024-02-15T07:19:12;9.17;;;6.87;;
10469;SDS011;5282;47.052;15.458;2024-02-15T07:21:39;11.27;;;6.10;;
10469;SDS011;5282;47.052;15.458;2024-02-15T07:24:06;5.90;;;5.23;;
10469;SDS011;5282;47.052;15.458;2024-02-15T07:26:34;9.20;;;5.93;;
10469;SDS011;5282;47.052;15.458;2024-02-15T07:29:02;6.60;;;5.53;;
10469;SDS011;5282;47.052;15.458;2024-02-15T07:31:31;7.13;;;6.10;;
10469;SDS011;5282;47.052;15.458;2024-02-15T07:33:58;12.43;;;7.30;;
10469;SDS011;5282;47.052;15.458;2024-02-15T07:36:27;12.83;;;7.90;;
10469;SDS011;5282;47.052;15.458;2024-02-15T07:38:54;15.17;;;7.97;;
10469;SDS011;5282;47.052;15.458;2024-02-15T07:41:23;11.23;;;7.30;;
10469;SDS011;5282;47.052;15.458;2024-02-15T07:43:50;11.17;;;6.97;;
10469;SDS011;5282;47.052;15.458;2024-02-15T07:46:20;14.70;;;8.03;;
10469;SDS011;5282;47.052;15.458;2024-02-15T07:48:47;12.63;;;8.23;;
10469;SDS011;5282;47.052;15.458;2024-02-15T07:51:14;13.73;;;7.63;;
10469;SDS011;5282;47.052;15.458;2024-02-15T07:53:45;15.00;;;7.20;;
10469;SDS011;5282;47.052;15.458;2024-02-15T07:56:13;12.57;;;7.70;;
10469;SDS011;5282;47.052;15.458;2024-02-15T07:58:41;11.43;;;7.70;;
10469;SDS011;5282;47.052;15.458;2024-02-15T08:01:11;10.57;;;7.33;;
10469;SDS011;5282;47.052;15.458;2024-02-15T08:03:38;10.20;;;7.00;;
10469;SDS011;5282;47.052;15.458;2024-02-15T08:06:09;10.97;;;7.37;;
10469;SDS011;5282;47.052;15.458;2024-02-15T08:08:38;9.30;;;6.73;;
10469;SDS011;5282;47.052;15.458;2024-02-15T08:11:08;8.53;;;7.70;;
10469;SDS011;5282;47.052;15.458;2024-02-15T08:13:40;10.70;;;7.33;;
10469;SDS011;5282;47.052;15.458;2024-02-15T08:16:09;10.80;;;8.43;;
10469;SDS011;5282;47.052;15.458;2024-02-15T08:18:37;12.20;;;6.77;;
10469;SDS011;5282;47.052;15.458;2024-02-15T08:21:05;12.10;;;7.50;;
10469;SDS011;5282;47.052;15.458;2024-02-15T08:23:32;10.90;;;7.50;;
10469;SDS011;5282;47.052;15.458;2024-02-15T08:25:59;10.93;;;7.13;;
10469;SDS011;5282;47.052;15.458;2024-02-15T08:28:28;9.03;;;6.70;;
10469;SDS011;5282;47.052;15.458;2024-02-15T08:30:55;11.93;;;7.27;;
10469;SDS011;5282;47.052;15.458;2024-02-15T08:33:22;9.57;;;6.97;;
10469;SDS011;5282;47.052;15.458;2024-02-15T08:35:49;8.73;;;6.57;;
10469;SDS011;5282;47.052;15.458;2024-02-15T08:38:20;8.47;;;7.10;;
10469;SDS011;5282;47.052;15.458;2024-02-15T08:40:47;11.93;;;7.80;;
10469;SDS011;5282;47.052;15.458;2024-02-15T08:43:14;8.97;;;7.17;;
10469;SDS011;5282;47.052;15.458;2024-02-15T08:45:43;8.20;;;7.40;;
10469;SDS011;5282;47.052;15.458;2024-02-15T08:48:10;10.97;;;7.47;;
10469;SDS011;5282;47.052;15.458;2024-02-15T08:50:38;9.33;;;7.30;;
10469;SDS011;5282;47.052;15.458;2024-02-15T08:53:06;8.07;;;6.80;;
10469;SDS011;5282;47.052;15.458;2024-02-15T08:55:33;7.80;;;6.33;;
10469;SDS011;5282;47.052;15.458;2024-02-15T08:58:01;7.37;;;6.70;;
10469;SDS011;5282;47.052;15.458;2024-02-15T09:00:29;7.07;;;6.37;;
10469;SDS011;5282;47.052;15.458;2024-02-15T09:02:57;7.80;;;6.57;;
10469;SDS011;5282;47.052;15.458;2024-02-15T09:05:25;7.13;;;6.47;;
10469;SDS011;5282;47.052;15.458;2024-02-15T09:07:52;8.03;;;6.43;;
10469;SDS011;5282;47.052;15.458;2024-02-15T09:10:19;7.97;;;6.30;;
10469;SDS011;5282;47.052;15.458;2024-02-15T09:12:47;12.40;;;7.07;;
10469;SDS011;5282;47.052;15.458;2024-02-15T09:15:15;11.33;;;7.23;;
10469;SDS011;5282;47.052;15.458;2024-02-15T09:17:44;9.07;;;6.70;;
10469;SDS011;5282;47.052;15.458;2024-02-15T09:20:13;9.10;;;6.47;;
10469;SDS011;5282;47.052;15.458;2024-02-15T09:22:42;11.77;;;7.43;;
10469;SDS011;5282;47.052;15.458;2024-02-15T09:25:11;9.87;;;6.40;;
10469;SDS011;5282;47.052;15.458;2024-02-15T09:27:38;9.50;;;7.03;;
10469;SDS011;5282;47.052;15.458;2024-02-15T09:30:06;9.67;;;6.67;;
10469;SDS011;5282;47.052;15.458;2024-02-15T09:32:37;10.80;;;6.70;;
10469;SDS011;5282;47.052;15.458;2024-02-15T09:35:05;9.00;;;6.83;;
10469;SDS011;5282;47.052;15.458;2024-02-15T09:37:34;10.53;;;7.83;;
10469;SDS011;5282;47.052;15.458;2024-02-15T09:40:02;11.40;;;7.27;;
10469;SDS011;5282;47.052;15.458;2024-02-15T09:42:31;10.77;;;7.43;;
10469;SDS011;5282;47.052;15.458;2024-02-15T09:45:00;16.67;;;8.83;;
10469;SDS011;5282;47.052;15.458;2024-02-15T09:47:29;10.63;;;6.87;;
10469;SDS011;5282;47.052;15.458;2024-02-15T09:50:00;10.23;;;7.13;;
10469;SDS011;5282;47.052;15.458;2024-02-15T09:52:28;10.40;;;6.83;;
10469;SDS011;5282;47.052;15.458;2024-02-15T09:54:58;8.17;;;6.83;;
10469;SDS011;5282;47.052;15.458;2024-02-15T09:57:29;10.63;;;6.43;;
10469;SDS011;5282;47.052;15.458;2024-02-15T09:59:57;11.23;;;7.43;;
10469;SDS011;5282;47.052;15.458;2024-02-15T10:02:25;9.83;;;7.73;;
10469;SDS011;5282;47.052;15.458;2024-02-15T10:04:53;8.20;;;7.07;;
10469;SDS011;5282;47.052;15.458;2024-02-15T10:07:22;11.27;;;7.83;;
10469;SDS011;5282;47.052;15.458;2024-02-15T10:09:50;9.27;;;8.17;;
10469;SDS011;5282;47.052;15.458;2024-02-15T10:12:18;12.27;;;7.23;;
10469;SDS011;5282;47.052;15.458;2024-02-15T10:14:50;11.03;;;7.60;;
10469;SDS011;5282;47.052;15.458;2024-02-15T10:17:18;13.77;;;7.57;;
10469;SDS011;5282;47.052;15.458;2024-02-15T10:20:03;13.23;;;7.37;;
10469;SDS011;5282;47.052;15.458;2024-02-15T10:22:31;9.40;;;7.80;;
10469;SDS011;5282;47.052;15.458;2024-02-15T10:25:11;12.57;;;7.70;;
10469;SDS011;5282;47.052;15.458;2024-02-15T10:27:41;9.80;;;7.37;;
10469;SDS011;5282;47.052;15.458;2024-02-15T10:30:14;9.83;;;7.87;;
10469;SDS011;5282;47.052;15.458;2024-02-15T10:32:44;9.63;;;7.47;;
10469;SDS011;5282;47.052;15.458;2024-02-15T10:35:18;7.20;;;6.60;;
10469;SDS011;5282;47.052;15.458;2024-02-15T10:37:46;9.27;;;6.43;;
10469;SDS011;5282;47.052;15.458;2024-02-15T10:40:17;7.80;;;6.30;;
10469;SDS011;5282;47.052;15.458;2024-02-15T10:42:47;8.73;;;6.30;;
10469;SDS011;5282;47.052;15.458;2024-02-15T10:45:15;6.57;;;5.97;;
10469;SDS011;5282;47.052;15.458;2024-02-15T10:47:44;8.87;;;7.27;;
10469;SDS011;5282;47.052;15.458;2024-02-15T10:50:12;9.53;;;6.43;;
10469;SDS011;5282;47.052;15.458;2024-02-15T10:52:43;10.60;;;6.60;;
10469;SDS011;5282;47.052;15.458;2024-02-15T10:55:17;7.30;;;6.17;;
10469;SDS011;5282;47.052;15.458;2024-02-15T10:57:52;6.30;;;5.27;;
10469;SDS011;5282;47.052;15.458;2024-02-15T11:00:28;8.47;;;5.90;;
10469;SDS011;5282;47.052;15.458;2024-02-15T11:03:00;7.37;;;5.33;;
10469;SDS011;5282;47.052;15.458;2024-02-15T11:05:31;5.47;;;5.00;;
10469;SDS011;5282;47.052;15.458;2024-02-15T11:08:02;6.50;;;5.33;;
10469;SDS011;5282;47.052;15.458;2024-02-15T11:10:30;7.10;;;5.07;;
10469;SDS011;5282;47.052;15.458;2024-02-15T11:12:59;6.30;;;4.87;;
10469;SDS011;5282;47.052;15.458;2024-02-15T11:21:09;5.93;;;5.40;;
10469;SDS011;5282;47.052;15.458;2024-02-15T11:23:36;6.23;;;4.43;;
10469;SDS011;5282;47.052;15.458;2024-02-15T11:26:04;5.23;;;4.53;;
10469;SDS011;5282;47.052;15.458;2024-02-15T11:28:39;7.90;;;4.57;;
10469;SDS011;5282;47.052;15.458;2024-02-15T11:40:11;6.47;;;4.50;;
10469;SDS011;5282;47.052;15.458;2024-02-15T11:42:38;5.83;;;4.23;;
10469;SDS011;5282;47.052;15.458;2024-02-15T11:45:07;5.67;;;4.30;;
10469;SDS011;5282;47.052;15.458;2024-02-15T11:47:36;4.40;;;4.00;;
10469;SDS011;5282;47.052;15.458;2024-02-15T11:50:05;4.47;;;4.17;;
10469;SDS011;5282;47.052;15.458;2024-02-15T11:52:37;4.90;;;4.50;;
10469;SDS011;5282;47.052;15.458;2024-02-15T11:55:05;6.10;;;4.20;;
10469;SDS011;5282;47.052;15.458;2024-02-15T11:57:36;4.33;;;4.03;;
10469;SDS011;5282;47.052;15.458;2024-02-15T12:00:23;4.90;;;4.40;;
10469;SDS011;5282;47.052;15.458;2024-02-15T12:03:08;4.20;;;3.90;;
10469;SDS011;5282;47.052;15.458;2024-02-15T12:05:55;4.53;;;4.13;;
10469;SDS011;5282;47.052;15.458;2024-02-15T12:08:51;5.37;;;4.87;;
10469;SDS011;5282;47.052;15.458;2024-02-15T12:11:36;5.27;;;4.37;;
10469;SDS011;5282;47.052;15.458;2024-02-15T12:14:20;4.40;;;3.97;;
10469;SDS011;5282;47.052;15.458;2024-02-15T12:17:07;4.30;;;3.50;;
10469;SDS011;5282;47.052;15.458;2024-02-15T12:19:53;8.17;;;3.93;;
10469;SDS011;5282;47.052;15.458;2024-02-15T12:22:24;3.80;;;3.50;;
10469;SDS011;5282;47.052;15.458;2024-02-15T12:24:53;4.20;;;3.43;;
10469;SDS011;5282;47.052;15.458;2024-02-15T12:27:21;3.33;;;3.13;;
10469;SDS011;5282;47.052;15.458;2024-02-15T12:29:56;3.87;;;3.00;;
10469;SDS011;5282;47.052;15.458;2024-02-15T12:32:25;3.93;;;3.43;;
10469;SDS011;5282;47.052;15.458;2024-02-15T12:34:53;3.10;;;2.90;;
10469;SDS011;5282;47.052;15.458;2024-02-15T12:37:38;3.90;;;3.60;;
10469;SDS011;5282;47.052;15.458;2024-02-15T12:40:12;3.27;;;3.00;;
10469;SDS011;5282;47.052;15.458;2024-02-15T12:42:41;3.17;;;2.97;;
10469;SDS011;5282;47.052;15.458;2024-02-15T12:45:14;2.83;;;2.60;;
10469;SDS011;5282;47.052;15.458;2024-02-15T12:47:48;3.00;;;2.80;;
10469;SDS011;5282;47.052;15.458;2024-02-15T12:50:17;3.20;;;2.90;;
10469;SDS011;5282;47.052;15.458;2024-02-15T12:52:45;3.50;;;3.20;;
10469;SDS011;5282;47.052;15.458;2024-02-15T12:55:14;3.17;;;2.93;;
10469;SDS011;5282;47.052;15.458;2024-02-15T12:57:43;3.07;;;2.90;;
10469;SDS011;5282;47.052;15.458;2024-02-15T13:00:17;3.20;;;3.00;;
10469;SDS011;5282;47.052;15.458;2024-02-15T13:02:48;3.57;;;3.00;;
10469;SDS011;5282;47.052;15.458;2024-02-15T13:05:15;3.40;;;3.00;;
10469;SDS011;5282;47.052;15.458;2024-02-15T13:07:45;2.93;;;2.70;;
10469;SDS011;5282;47.052;15.458;2024-02-15T13:10:13;2.87;;;2.77;;
10469;SDS011;5282;47.052;15.458;2024-02-15T13:12:41;3.40;;;2.70;;
10469;SDS011;5282;47.052;15.458;2024-02-15T13:15:09;3.03;;;2.70;;
10469;SDS011;5282;47.052;15.458;2024-02-15T13:17:40;2.53;;;2.33;;
10469;SDS011;5282;47.052;15.458;2024-02-15T13:20:11;2.30;;;2.10;;
10469;SDS011;5282;47.052;15.458;2024-02-15T13:22:39;2.70;;;2.40;;
10469;SDS011;5282;47.052;15.458;2024-02-15T13:25:07;2.30;;;2.10;;
10469;SDS011;5282;47.052;15.458;2024-02-15T13:27:34;2.50;;;2.30;;
10469;SDS011;5282;47.052;15.458;2024-02-15T13:30:04;2.10;;;2.00;;
10469;SDS011;5282;47.052;15.458;2024-02-15T13:32:34;3.80;;;1.87;;
10469;SDS011;5282;47.052;15.458;2024-02-15T13:35:02;3.73;;;2.37;;
10469;SDS011;5282;47.052;15.458;2024-02-15T13:37:40;2.43;;;2.30;;
10469;SDS011;5282;47.052;15.458;2024-02-15T13:40:09;2.40;;;2.30;;
10469;SDS011;5282;47.052;15.458;2024-02-15T13:42:41;2.60;;;2.50;;
10469;SDS011;5282;47.052;15.458;2024-02-15T13:45:12;2.50;;;2.40;;
10469;SDS011;5282;47.052;15.458;2024-02-15T13:47:41;2.63;;;2.37;;
10469;SDS011;5282;47.052;15.458;2024-02-15T13:50:11;3.83;;;2.30;;
10469;SDS011;5282;47.052;15.458;2024-02-15T13:52:41;3.53;;;2.20;;
10469;SDS011;5282;47.052;15.458;2024-02-15T13:55:10;1.97;;;1.87;;
10469;SDS011;5282;47.052;15.458;2024-02-15T13:57:38;2.13;;;2.03;;
10469;SDS011;5282;47.052;15.458;2024-02-15T14:00:06;2.40;;;2.27;;
10469;SDS011;5282;47.052;15.458;2024-02-15T14:02:39;3.33;;;2.00;;
10469;SDS011;5282;47.052;15.458;2024-02-15T14:05:08;2.03;;;1.80;;
10469;SDS011;5282;47.052;15.458;2024-02-15T14:07:38;2.10;;;1.90;;
10469;SDS011;5282;47.052;15.458;2024-02-15T14:10:06;1.93;;;1.80;;
10469;SDS011;5282;47.052;15.458;2024-02-15T14:12:34;1.77;;;1.77;;
10469;SDS011;5282;47.052;15.458;2024-02-15T14:15:00;2.73;;;1.73;;
10469;SDS011;5282;47.052;15.458;2024-02-15T14:17:28;2.57;;;2.07;;
10469;SDS011;5282;47.052;15.458;2024-02-15T14:19:54;3.17;;;2.00;;
10469;SDS011;5282;47.052;15.458;2024-02-15T14:22:23;1.87;;;1.77;;
10469;SDS011;5282;47.052;15.458;2024-02-15T14:24:53;2.60;;;2.03;;
10469;SDS011;5282;47.052;15.458;2024-02-15T14:27:22;2.10;;;2.00;;
10469;SDS011;5282;47.052;15.458;2024-02-15T14:29:49;2.20;;;2.10;;
10469;SDS011;5282;47.052;15.458;2024-02-15T14:32:32;4.30;;;2.23;;
10469;SDS011;5282;47.052;15.458;2024-02-15T14:35:16;1.97;;;1.87;;
10469;SDS011;5282;47.052;15.458;2024-02-15T14:37:46;1.83;;;1.73;;
10469;SDS011;5282;47.052;15.458;2024-02-15T14:40:13;2.83;;;2.00;;
10469;SDS011;5282;47.052;15.458;2024-02-15T14:42:42;1.77;;;1.70;;
10469;SDS011;5282;47.052;15.458;2024-02-15T14:45:09;3.07;;;1.97;;
10469;SDS011;5282;47.052;15.458;2024-02-15T14:47:39;3.10;;;1.63;;
10469;SDS011;5282;47.052;15.458;2024-02-15T14:50:07;2.13;;;1.70;;
10469;SDS011;5282;47.052;15.458;2024-02-15T14:52:35;4.30;;;1.70;;
10469;SDS011;5282;47.052;15.458;2024-02-15T14:55:03;2.43;;;1.90;;
10469;SDS011;5282;47.052;15.458;2024-02-15T14:57:31;4.13;;;2.23;;
10469;SDS011;5282;47.052;15.458;2024-02-15T15:00:00;2.80;;;2.10;;
10469;SDS011;5282;47.052;15.458;2024-02-15T15:02:30;1.90;;;1.80;;
10469;SDS011;5282;47.052;15.458;2024-02-15T15:04:57;1.93;;;1.87;;
10469;SDS011;5282;47.052;15.458;2024-02-15T15:07:44;2.03;;;1.93;;
10469;SDS011;5282;47.052;15.458;2024-02-15T15:10:29;4.70;;;2.07;;
10469;SDS011;5282;47.052;15.458;2024-02-15T15:13:13;2.13;;;2.00;;